Terminal Aerodrome Forecast
Issued by NWS

Home | Current Version | Previous Version | Text Only | Print | Product List | Glossary On
Versions: 1 2 3 4 5 6 7 8 9 10 11 12 13 14 15 16 17 18 19
000
FTUS44 KLZK 031500 AAB
TAFADF
TAF AMD
KADF 031534Z 0316/0412 00000KT 2SM BR OVC005
      TEMPO 0316/0318 1/2SM FG VV002
     FM031900 20005KT 5SM BR VCSH BKN005 OVC020
     FM032200 21007KT P6SM VCSH SCT008 OVC020
     FM040100 22004KT 4SM -RA BR BKN005 OVC020=

USA.gov is the U.S. government's official web portal to all federal, state and local government web resources and services.